Malaga, Spain

3:21 AM CET on December 21, 2014 (GMT +0100)
IALALHAU2 | Change Station
CLOSE
Current Station
Personal Weather Station
Location: Alhaurin De La Torre, Malaga
Elevation: 360 ft
Nearby Weather Stations

Elev 360 ft 36.66 °N, 4.55 °W | Updated 1 minute ago

Mostly Cloudy
Mostly Cloudy
54.7 °F
Feels Like 54.7 °F
N
0.0
Wind Variable Wind from North
Gusts 0.0 mph

Today
High -- | Low -- °F
--% Chance of Precip.
Yesterday
High -- | Low -- °F
Precip. -- in
8:26 AM 6:05 PM
Waning Crescent, 1% visible
Pressure 30.45 in
Visibility 4.3 miles
Clouds Mostly Cloudy 3000 ft
Dew Point 48 °F
Humidity 82%
Rainfall -999.00 in
Snow Depth Not available.
UV 0 out of 12
Pollen Not available.
Air Quality Not available.
Flu Activity Not available.
METAR LEMG 210200Z 30004KT 7000 BKN030 12/11 Q1031 NOSIG

More Conditions Fewer Conditions

Pressure 30.45 in
Visibility 4.3 miles
Clouds Mostly Cloudy 3000 ft
Dew Point 48 °F
Humidity 82%
Rainfall -999.00 in
Snow Depth Not available.
UV 0 out of 12
Pollen Not available.
Air Quality Not available.
Flu Activity Not available.
METAR LEMG 210200Z 30004KT 7000 BKN030 12/11 Q1031 NOSIG

More Conditions Fewer Conditions

10-Day Weather Forecast

Almanac

Astronomy

Dec. 21, 2014 Rise Set
Actual Time
Civil Twilight
Nautical Twilight
Astronomical Twilight
Moon
Length of Visible Light
Length of Day
Tomorrow will be .
, % of the Moon is Illuminated

Today's Extremes

Country Highs Country Lows

Community

WunderPhotos

Upload Photos

1,779,348 photos uploaded!

WunderBlogs® & News

Nearby

Air Quality

  Air Quality AQ Index Pollutant
Not available.

Snow Depth

Station Depth Elevation

Earthquake Activity

City Distance Mag. Time & Date
Minimum magnitude displayed is 2.5.

Coastal Water Temperatures

Place Temperature

Nearby Weather Stations